< < Back
Terminal Aerodrome Forecast


Current Version              Previous Versions:   1  2  3  4  5  6  7  8  9  

Terminal Aerodrome Forecast

559
FTUS44 KMOB 201100
TAFMOB
TAF
KMOB 201120Z 2012/2112 04003KT P6SM SKC
     FM201900 14006KT P6SM SKC
     FM210200 VRB03KT P6SM SKC=

Latest METAR

833
SAUS80 KWBC 211000
MTRMOB
METAR KMOB 210956Z AUTO 03003KT 10SM CLR 12/10 A3002 RMK AO2 SLP161
T01170100


USA.gov is the U.S. government's official web portal to all federal, state and local government web resources and services.